Time;durP1;ratioP1;P1;durP2;ratioP2;P2;SDS_P1;SDS_P2;PMS_P1;PMS_P2;Temp;Humidity;BMP_temperature;BMP_pressure;BME280_temperature;BME280_humidity;BME280_pressure;Samples;Min_cycle;Max_cycle;Signal;HPM_P1;HPM_P2
2021/12/24 00:02:15;;;;;;;7.83;5.93;;;9.20;99.90;;;;;;5016865;28;20450;-90
2021/12/24 00:04:42;;;;;;;5.80;4.60;;;9.20;99.90;;;;;;5016193;28;20446;-91
2021/12/24 00:07:09;;;;;;;6.13;5.50;;;9.20;99.90;;;;;;5016163;28;20483;-90
2021/12/24 00:09:38;;;;;;;5.60;4.67;;;9.20;99.90;;;;;;5015897;28;20463;-91
2021/12/24 00:12:13;;;;;;;5.17;4.67;;;9.20;99.90;;;;;;5002541;28;20506;-90
2021/12/24 00:14:43;;;;;;;6.93;4.80;;;9.30;99.90;;;;;;5015630;28;20461;-90
2021/12/24 00:17:14;;;;;;;6.13;5.53;;;9.30;99.90;;;;;;5033029;28;20454;-91
2021/12/24 00:19:47;;;;;;;5.03;4.53;;;9.30;99.90;;;;;;5032443;28;20501;-90
2021/12/24 00:22:54;;;;;;;5.50;4.97;;;9.30;99.90;;;;;;5032059;28;20454;-91
2021/12/24 00:36:13;;;;;;;6.27;5.13;;;9.20;99.90;;;;;;5017192;28;20433;-90
2021/12/24 00:38:40;;;;;;;7.53;6.83;;;9.10;99.90;;;;;;5015423;28;20473;-91
2021/12/24 00:41:08;;;;;;;9.60;6.03;;;9.10;99.90;;;;;;5016814;28;20438;-90
2021/12/24 00:43:35;;;;;;;5.20;4.50;;;9.10;99.90;;;;;;5017582;28;20954;-90
2021/12/24 00:46:01;;;;;;;4.90;4.30;;;9.10;99.90;;;;;;5028665;28;20434;-91
2021/12/24 00:48:28;;;;;;;6.93;5.03;;;9.00;99.90;;;;;;5021655;28;20489;-91
2021/12/24 00:51:19;;;;;;;6.03;5.40;;;9.10;99.90;;;;;;5018996;28;20454;-91
2021/12/24 00:56:28;;;;;;;7.20;5.70;;;9.00;99.90;;;;;;5019807;28;20445;-91
2021/12/24 00:58:55;;;;;;;4.60;4.20;;;9.00;99.90;;;;;;5017161;28;20467;-90
2021/12/24 01:01:21;;;;;;;6.57;5.30;;;9.10;99.90;;;;;;5025175;28;20446;-90
2021/12/24 01:03:48;;;;;;;9.00;6.07;;;9.20;99.90;;;;;;5025073;28;20807;-91
2021/12/24 01:06:15;;;;;;;5.60;5.03;;;9.20;99.90;;;;;;5021178;28;20454;-91
2021/12/24 01:08:42;;;;;;;6.43;5.17;;;9.10;99.90;;;;;;5022769;28;20492;-91
2021/12/24 01:11:10;;;;;;;6.20;5.50;;;9.10;99.90;;;;;;5018330;28;20461;-91
2021/12/24 01:13:40;;;;;;;5.90;5.27;;;9.10;99.90;;;;;;5017245;28;20961;-91
2021/12/24 01:16:16;;;;;;;5.80;5.30;;;9.10;99.90;;;;;;5016158;28;20489;-91
2021/12/24 01:19:06;;;;;;;5.90;5.27;;;9.10;99.90;;;;;;5015102;28;20488;-90
2021/12/24 01:21:54;;;;;;;6.07;5.47;;;9.10;99.90;;;;;;5015243;28;20553;-90
2021/12/24 01:24:30;;;;;;;7.70;6.00;;;9.10;99.90;;;;;;5016027;28;20561;-91
2021/12/24 01:27:05;;;;;;;6.20;5.60;;;9.10;99.90;;;;;;5008061;28;20457;-91
2021/12/24 01:29:48;;;;;;;7.27;6.30;;;9.10;99.90;;;;;;5014556;28;20564;-91
2021/12/24 01:37:54;;;;;;;6.73;6.03;;;8.90;99.90;;;;;;5014553;28;20946;-90
2021/12/24 01:40:29;;;;;;;5.77;5.17;;;8.80;99.90;;;;;;5015276;28;20462;-91
2021/12/24 01:42:55;;;;;;;8.23;6.27;;;8.70;99.90;;;;;;5014522;28;20449;-91
2021/12/24 01:45:26;;;;;;;8.03;6.77;;;8.70;99.90;;;;;;5015802;28;20998;-91
2021/12/24 01:47:56;;;;;;;7.40;6.80;;;8.60;99.90;;;;;;5025529;28;20489;-91
2021/12/24 01:50:25;;;;;;;8.53;6.47;;;8.60;99.90;;;;;;5016973;28;20445;-91
2021/12/24 01:52:53;;;;;;;7.50;6.70;;;8.60;99.90;;;;;;5014823;28;20810;-89
2021/12/24 01:55:21;;;;;;;9.80;6.37;;;8.50;99.90;;;;;;5028352;28;20498;-89
2021/12/24 01:57:48;;;;;;;8.30;6.23;;;8.60;99.90;;;;;;5029151;28;20454;-89
2021/12/24 02:00:18;;;;;;;6.00;5.40;;;8.50;99.90;;;;;;5035833;28;20449;-89
2021/12/24 02:02:46;;;;;;;7.57;6.87;;;8.70;99.90;;;;;;5032012;28;20434;-88
2021/12/24 02:05:13;;;;;;;8.23;7.03;;;8.70;99.90;;;;;;5021215;28;20442;-89
2021/12/24 02:07:41;;;;;;;7.23;6.50;;;8.80;99.90;;;;;;5018268;28;20481;-92
2021/12/24 02:10:11;;;;;;;8.60;7.80;;;8.80;99.90;;;;;;5018733;28;20456;-91
2021/12/24 02:12:38;;;;;;;8.50;7.03;;;8.70;99.90;;;;;;5018488;28;20446;-89
2021/12/24 02:15:09;;;;;;;7.43;6.73;;;8.80;99.90;;;;;;5018818;28;20951;-92
2021/12/24 02:17:58;;;;;;;7.30;6.40;;;8.60;99.90;;;;;;5018230;28;20471;-92
2021/12/24 02:28:50;;;;;;;6.03;5.40;;;8.80;99.90;;;;;;5018419;28;20496;-91
2021/12/24 02:31:20;;;;;;;7.37;6.20;;;8.70;99.90;;;;;;5018083;28;20445;-91
2021/12/24 02:33:47;;;;;;;7.47;6.03;;;8.70;99.90;;;;;;5018727;28;20439;-91
2021/12/24 02:36:16;;;;;;;7.80;6.70;;;8.70;99.90;;;;;;5016971;28;20454;-91
2021/12/24 02:38:44;;;;;;;7.23;6.60;;;8.60;99.90;;;;;;5017938;28;20470;-92
2021/12/24 02:41:11;;;;;;;7.37;5.73;;;8.60;99.90;;;;;;5017569;28;20430;-92
2021/12/24 02:43:39;;;;;;;6.23;5.63;;;8.60;99.90;;;;;;5017995;28;20458;-91
2021/12/24 02:46:10;;;;;;;7.20;5.60;;;8.70;99.90;;;;;;5017094;28;20955;-91
2021/12/24 02:49:06;;;;;;;6.97;6.27;;;8.70;99.90;;;;;;5017234;28;20497;-92
2021/12/24 02:54:21;;;;;;;6.63;5.30;;;8.60;99.90;;;;;;5017540;28;20434;-91
2021/12/24 02:56:52;;;;;;;6.10;5.23;;;8.60;99.90;;;;;;5017082;28;20442;-91
2021/12/24 02:59:25;;;;;;;6.67;5.67;;;8.60;99.90;;;;;;5017677;28;20819;-91
2021/12/24 03:01:54;;;;;;;7.97;6.10;;;8.50;99.90;;;;;;5006069;28;20454;-91
2021/12/24 03:04:21;;;;;;;6.70;5.90;;;8.50;99.90;;;;;;5016931;28;20452;-92
2021/12/24 03:06:52;;;;;;;7.27;6.30;;;8.50;99.90;;;;;;5017883;28;20567;-91
2021/12/24 03:09:21;;;;;;;11.60;6.67;;;8.50;99.90;;;;;;5029378;28;20493;-92
2021/12/24 03:11:51;;;;;;;7.13;5.83;;;8.50;99.90;;;;;;5024813;28;20458;-91
2021/12/24 03:14:19;;;;;;;5.17;4.53;;;8.60;99.90;;;;;;5008308;28;20547;-91
2021/12/24 03:16:53;;;;;;;5.47;4.70;;;8.70;99.90;;;;;;5016364;28;20465;-91
2021/12/24 03:19:24;;;;;;;5.23;4.80;;;8.70;99.90;;;;;;5002308;28;20466;-91
2021/12/24 03:21:57;;;;;;;6.17;5.10;;;8.80;99.90;;;;;;5016220;28;20442;-91
2021/12/24 03:24:36;;;;;;;4.70;4.20;;;8.90;99.90;;;;;;5004960;28;20458;-91
2021/12/24 03:27:05;;;;;;;5.90;4.23;;;8.90;99.90;;;;;;5012820;28;20789;-90
2021/12/24 03:29:32;;;;;;;5.03;4.13;;;9.00;99.90;;;;;;5015599;28;20481;-91
2021/12/24 03:31:59;;;;;;;5.60;4.30;;;9.00;99.90;;;;;;5036919;28;20430;-91
2021/12/24 03:34:26;;;;;;;8.40;4.20;;;9.10;99.90;;;;;;5039663;28;20440;-90
2021/12/24 03:36:54;;;;;;;4.30;3.47;;;9.10;99.90;;;;;;5036567;28;20456;-91
2021/12/24 03:39:21;;;;;;;4.00;3.40;;;9.30;99.90;;;;;;5034601;28;20529;-91
2021/12/24 03:41:48;;;;;;;4.17;3.70;;;9.40;99.90;;;;;;5027066;28;20448;-91
2021/12/24 03:44:17;;;;;;;4.40;3.93;;;9.40;99.90;;;;;;5018478;28;20455;-91
2021/12/24 03:46:53;;;;;;;4.53;3.23;;;9.40;99.90;;;;;;5020829;28;20461;-92
2021/12/24 03:49:31;;;;;;;3.63;3.33;;;9.40;99.90;;;;;;5028520;28;20521;-91
2021/12/24 03:52:14;;;;;;;4.90;3.30;;;9.50;99.90;;;;;;5022166;28;20446;-91
2021/12/24 03:54:56;;;;;;;4.13;3.57;;;9.50;99.90;;;;;;5018104;28;20456;-92
2021/12/24 03:57:23;;;;;;;4.50;4.10;;;9.50;99.90;;;;;;5017723;28;20453;-91
2021/12/24 04:00:10;;;;;;;4.13;3.33;;;9.50;99.90;;;;;;5017361;28;20481;-92
2021/12/24 04:02:36;;;;;;;5.40;3.60;;;9.60;99.90;;;;;;5013214;28;20453;-92
2021/12/24 04:05:04;;;;;;;3.83;3.13;;;9.50;99.90;;;;;;5016905;28;20437;-91
2021/12/24 04:07:32;;;;;;;4.97;4.47;;;9.50;99.90;;;;;;5016937;28;20473;-91
2021/12/24 04:10:02;;;;;;;3.90;3.50;;;9.50;99.90;;;;;;5017175;28;21040;-91
2021/12/24 04:12:30;;;;;;;4.20;3.33;;;9.40;99.90;;;;;;5015691;28;20482;-91
2021/12/24 04:14:57;;;;;;;3.97;3.57;;;9.40;99.90;;;;;;5016483;28;20442;-92
2021/12/24 04:17:24;;;;;;;3.70;3.10;;;9.50;99.90;;;;;;5026745;28;20454;-91
2021/12/24 04:25:30;;;;;;;4.30;3.20;;;9.60;99.90;;;;;;5017826;28;20430;-92
2021/12/24 04:27:59;;;;;;;3.10;2.80;;;9.60;99.90;;;;;;5025834;28;21028;-91
2021/12/24 04:30:32;;;;;;;5.70;3.60;;;9.60;99.90;;;;;;5015914;28;20450;-91
2021/12/24 04:33:03;;;;;;;3.60;2.93;;;9.60;99.90;;;;;;5016334;28;20524;-92
2021/12/24 04:38:33;;;;;;;2.83;2.60;;;9.60;99.90;;;;;;5014737;28;20512;-91
2021/12/24 04:52:10;;;;;;;5.17;3.63;;;9.60;99.90;;;;;;5015478;28;20480;-92
2021/12/24 05:03:00;;;;;;;6.03;3.90;;;9.50;99.90;;;;;;5015135;28;20791;-92
2021/12/24 05:05:37;;;;;;;3.23;2.83;;;9.50;99.90;;;;;;5015407;28;20449;-89
2021/12/24 05:08:22;;;;;;;4.03;3.17;;;9.50;99.90;;;;;;5015796;28;20515;-89
2021/12/24 05:10:52;;;;;;;3.00;2.80;;;9.50;99.90;;;;;;5033289;28;20438;-88
2021/12/24 05:13:21;;;;;;;3.03;2.73;;;9.50;99.90;;;;;;5028790;28;20442;-90
2021/12/24 05:18:35;;;;;;;4.43;3.20;;;9.50;99.90;;;;;;5017570;28;20815;-90
2021/12/24 05:23:46;;;;;;;3.63;3.27;;;9.60;99.90;;;;;;5025810;28;20433;-90
2021/12/24 05:26:14;;;;;;;4.87;4.00;;;9.60;99.90;;;;;;5022381;28;20531;-90
2021/12/24 05:28:42;;;;;;;4.10;3.33;;;9.60;99.90;;;;;;5015424;28;20478;-89
2021/12/24 05:31:09;;;;;;;5.83;4.07;;;9.60;99.90;;;;;;5015658;28;20915;-89
2021/12/24 05:33:36;;;;;;;3.43;3.13;;;9.70;99.90;;;;;;5015239;28;20450;-89
2021/12/24 05:36:03;;;;;;;2.77;2.57;;;9.70;99.90;;;;;;5015215;28;20446;-91
2021/12/24 05:38:30;;;;;;;5.70;3.70;;;9.80;99.90;;;;;;5014568;28;20993;-90
2021/12/24 05:40:57;;;;;;;3.33;3.03;;;9.90;99.90;;;;;;5015383;28;20450;-90
2021/12/24 05:43:26;;;;;;;3.13;2.83;;;10.00;99.90;;;;;;5018527;28;20425;-90
2021/12/24 05:45:53;;;;;;;4.07;3.07;;;10.00;99.90;;;;;;5021973;28;20438;-90
2021/12/24 05:48:19;;;;;;;4.00;3.63;;;10.00;99.90;;;;;;5016388;28;20470;-89
2021/12/24 05:50:46;;;;;;;3.53;3.23;;;10.00;99.90;;;;;;5006654;28;20446;-89
2021/12/24 05:53:13;;;;;;;4.10;3.40;;;10.00;99.90;;;;;;5017602;28;20541;-90
2021/12/24 05:55:40;;;;;;;3.53;2.90;;;10.00;99.90;;;;;;5037300;28;20465;-89
2021/12/24 05:58:09;;;;;;;5.90;3.50;;;10.10;99.90;;;;;;5030898;28;20466;-90
2021/12/24 06:00:39;;;;;;;3.60;3.30;;;10.10;99.90;;;;;;5027052;28;20441;-90
2021/12/24 06:03:06;;;;;;;3.60;3.30;;;10.10;99.90;;;;;;5022361;28;20454;-90
2021/12/24 06:05:33;;;;;;;5.43;4.27;;;10.00;99.90;;;;;;4996962;28;20888;-90
2021/12/24 06:08:00;;;;;;;7.50;3.87;;;10.10;99.90;;;;;;4995519;28;20454;-90
2021/12/24 06:10:27;;;;;;;4.00;2.83;;;10.00;99.90;;;;;;5007946;28;20478;-90
2021/12/24 06:12:54;;;;;;;5.30;3.30;;;10.00;99.90;;;;;;5015882;28;20437;-90
2021/12/24 06:15:24;;;;;;;4.43;4.03;;;10.00;99.90;;;;;;5015274;28;20458;-90
2021/12/24 06:17:55;;;;;;;4.50;3.03;;;10.00;99.90;;;;;;5020067;28;20454;-89
2021/12/24 06:20:23;;;;;;;3.70;3.27;;;10.00;99.90;;;;;;5033500;28;20433;-90
2021/12/24 06:22:51;;;;;;;6.70;3.80;;;9.90;99.90;;;;;;5027378;28;20449;-90
2021/12/24 06:25:20;;;;;;;4.00;3.20;;;10.00;99.90;;;;;;5024132;28;20449;-90
2021/12/24 06:27:47;;;;;;;6.13;3.40;;;10.00;99.90;;;;;;5022728;28;20431;-89
2021/12/24 06:30:15;;;;;;;4.73;4.00;;;10.00;99.90;;;;;;5018844;28;20477;-90
2021/12/24 06:32:42;;;;;;;5.80;4.20;;;10.00;99.90;;;;;;5021556;28;20995;-89
2021/12/24 06:35:10;;;;;;;4.13;3.50;;;10.10;99.90;;;;;;5013659;28;20449;-90
2021/12/24 06:37:38;;;;;;;5.53;3.27;;;10.10;99.90;;;;;;5014177;28;20440;-89
2021/12/24 06:40:06;;;;;;;3.73;3.33;;;10.20;99.90;;;;;;5014630;28;20845;-88
2021/12/24 06:42:33;;;;;;;3.90;3.50;;;10.20;99.90;;;;;;5012553;28;20457;-88
2021/12/24 06:45:01;;;;;;;4.00;3.70;;;10.20;99.90;;;;;;5025941;28;20449;-88
2021/12/24 06:47:28;;;;;;;4.73;3.97;;;10.30;99.90;;;;;;5034358;28;20439;-89
2021/12/24 06:49:55;;;;;;;5.60;3.83;;;10.40;99.90;;;;;;5032769;28;20496;-88
2021/12/24 06:52:23;;;;;;;5.53;4.33;;;10.40;99.90;;;;;;5025447;28;20434;-89
2021/12/24 06:54:50;;;;;;;4.77;3.20;;;10.50;99.90;;;;;;5021006;28;20457;-89
2021/12/24 06:57:18;;;;;;;7.77;4.20;;;10.60;99.90;;;;;;5018805;28;20453;-89
2021/12/24 06:59:45;;;;;;;5.57;3.70;;;10.60;99.90;;;;;;5019335;28;20561;-89
2021/12/24 07:02:12;;;;;;;6.03;4.30;;;10.70;99.90;;;;;;5030623;28;20457;-88
2021/12/24 07:04:38;;;;;;;4.43;3.73;;;10.80;99.90;;;;;;5024806;28;20465;-89
2021/12/24 07:07:05;;;;;;;4.63;4.23;;;10.80;99.90;;;;;;5018555;28;20461;-88
2021/12/24 07:09:33;;;;;;;5.63;4.20;;;10.80;99.90;;;;;;5017824;28;20489;-90
2021/12/24 07:12:00;;;;;;;5.20;4.80;;;10.70;99.90;;;;;;5017958;28;20450;-89
2021/12/24 07:14:30;;;;;;;5.23;4.33;;;10.70;99.90;;;;;;5017878;28;20446;-90
2021/12/24 07:16:57;;;;;;;3.73;3.33;;;10.70;99.90;;;;;;5017678;28;20482;-89
2021/12/24 07:19:23;;;;;;;4.07;3.63;;;10.70;99.90;;;;;;5018246;28;20462;-90
2021/12/24 07:21:50;;;;;;;6.53;4.37;;;10.70;99.90;;;;;;5018074;28;20816;-90
2021/12/24 07:24:17;;;;;;;6.27;4.20;;;10.60;99.90;;;;;;5014934;28;20462;-89
2021/12/24 07:26:45;;;;;;;4.57;4.17;;;10.60;99.90;;;;;;5017041;28;20438;-90
2021/12/24 07:29:12;;;;;;;5.63;4.20;;;10.60;99.90;;;;;;5017569;28;20492;-90
2021/12/24 07:31:39;;;;;;;5.17;4.17;;;10.70;99.90;;;;;;5018181;28;20454;-89
2021/12/24 07:34:05;;;;;;;4.03;3.70;;;10.70;99.90;;;;;;5020269;28;20446;-90
2021/12/24 07:36:32;;;;;;;4.70;3.90;;;10.70;99.90;;;;;;5026033;28;20442;-90
2021/12/24 07:38:59;;;;;;;5.57;5.00;;;10.60;99.90;;;;;;5017573;28;20966;-90
2021/12/24 07:41:26;;;;;;;5.37;4.80;;;10.60;99.90;;;;;;5017438;28;20488;-90
2021/12/24 07:43:55;;;;;;;4.90;4.47;;;10.60;99.90;;;;;;5017570;28;20816;-90
2021/12/24 07:46:24;;;;;;;8.73;4.20;;;10.60;99.90;;;;;;5015907;28;20477;-88
2021/12/24 07:48:53;;;;;;;4.93;4.10;;;10.60;99.90;;;;;;5016537;28;20474;-91
2021/12/24 07:54:05;;;;;;;4.40;4.00;;;10.60;99.90;;;;;;5016667;28;20493;-89
2021/12/24 07:56:33;;;;;;;4.47;3.90;;;10.60;99.90;;;;;;5013515;28;20793;-90
2021/12/24 07:59:01;;;;;;;5.27;4.73;;;10.60;99.90;;;;;;5016679;28;20474;-89
2021/12/24 08:01:29;;;;;;;4.23;3.80;;;10.60;99.90;;;;;;5015038;28;20449;-89
2021/12/24 08:03:56;;;;;;;5.30;4.13;;;10.60;99.90;;;;;;5016055;28;20822;-90
2021/12/24 08:06:25;;;;;;;3.77;3.47;;;10.60;99.90;;;;;;5016103;28;20450;-91
2021/12/24 08:08:56;;;;;;;5.30;3.77;;;10.60;99.90;;;;;;5015916;28;20462;-90
2021/12/24 08:14:52;;;;;;;3.83;3.50;;;10.60;99.90;;;;;;4977689;28;20436;-90
2021/12/24 08:17:19;;;;;;;6.30;4.20;;;10.60;99.90;;;;;;5029843;28;20426;-90
2021/12/24 08:19:46;;;;;;;4.87;4.30;;;10.50;99.90;;;;;;5037106;28;20519;-89
2021/12/24 08:22:13;;;;;;;3.93;3.53;;;10.50;99.90;;;;;;5037461;28;20461;-90
2021/12/24 08:24:41;;;;;;;4.70;4.07;;;10.50;99.90;;;;;;5036505;28;20514;-90
2021/12/24 08:27:08;;;;;;;4.70;4.20;;;10.50;99.90;;;;;;5024060;28;20450;-90
2021/12/24 08:29:35;;;;;;;6.63;5.10;;;10.40;99.90;;;;;;5021156;28;20470;-90
2021/12/24 08:32:05;;;;;;;4.50;4.10;;;10.40;99.90;;;;;;5021244;28;20454;-90
2021/12/24 08:34:32;;;;;;;4.70;3.93;;;10.50;99.90;;;;;;5019004;28;20474;-90
2021/12/24 08:37:00;;;;;;;3.87;3.43;;;10.50;99.90;;;;;;5015399;28;20461;-89
2021/12/24 08:39:29;;;;;;;5.90;4.40;;;10.50;99.90;;;;;;5020012;28;20491;-90
2021/12/24 08:46:04;;;;;;;4.40;4.00;;;10.60;99.90;;;;;;5023691;28;20394;-90
2021/12/24 08:56:37;;;;;;;4.70;3.77;;;10.60;99.90;;;;;;5175442;22;20562;-88
2021/12/24 08:59:04;;;;;;;5.90;3.93;;;10.60;99.90;;;;;;5051961;28;20456;-89
2021/12/24 09:01:31;;;;;;;6.57;3.80;;;10.60;99.90;;;;;;5049420;28;20894;-89
2021/12/24 09:03:58;;;;;;;4.83;4.13;;;10.60;99.90;;;;;;5052367;28;20499;-89
2021/12/24 09:06:25;;;;;;;3.77;3.47;;;10.60;99.90;;;;;;5048656;28;20425;-90
2021/12/24 09:08:53;;;;;;;3.97;3.57;;;10.60;99.90;;;;;;5053281;28;20464;-89
2021/12/24 09:11:20;;;;;;;4.10;3.77;;;10.60;99.90;;;;;;5056002;28;20469;-89
2021/12/24 09:13:48;;;;;;;5.07;4.13;;;10.60;99.90;;;;;;5055529;28;20543;-90
2021/12/24 09:16:15;;;;;;;3.63;3.23;;;10.60;99.90;;;;;;5052007;28;20454;-89
2021/12/24 09:18:55;;;;;;;5.30;4.10;;;10.60;99.90;;;;;;5048157;28;20507;-87
2021/12/24 09:21:23;;;;;;;6.40;4.47;;;10.60;99.90;;;;;;5057749;28;20460;-86
2021/12/24 09:23:50;;;;;;;4.97;4.07;;;10.60;99.90;;;;;;5053638;28;20506;-86
2021/12/24 09:26:23;;;;;;;3.90;3.60;;;10.60;99.90;;;;;;5050150;28;20442;-85
2021/12/24 09:29:00;;;;;;;4.00;3.60;;;10.60;99.90;;;;;;5044627;28;20480;-91
2021/12/24 09:31:27;;;;;;;4.10;3.50;;;10.60;99.90;;;;;;5045823;28;20496;-84
2021/12/24 09:33:59;;;;;;;7.13;5.50;;;10.50;99.90;;;;;;5048868;28;20450;-85
2021/12/24 09:36:28;;;;;;;4.90;4.37;;;10.50;99.90;;;;;;5058942;28;20444;-86
2021/12/24 09:39:01;;;;;;;8.00;4.03;;;10.50;99.90;;;;;;5031039;28;20533;-91
2021/12/24 09:41:28;;;;;;;4.10;3.27;;;10.50;99.90;;;;;;5054368;28;20535;-92
2021/12/24 09:43:58;;;;;;;3.83;3.43;;;10.40;99.90;;;;;;5059228;28;20440;-91
2021/12/24 09:46:26;;;;;;;4.73;4.17;;;10.40;99.90;;;;;;5073148;28;20422;-91
2021/12/24 09:48:56;;;;;;;5.07;4.00;;;10.40;99.90;;;;;;5076110;28;20487;-90
2021/12/24 09:51:27;;;;;;;3.90;3.50;;;10.40;99.90;;;;;;5066944;28;20462;-91
2021/12/24 09:53:57;;;;;;;6.60;3.90;;;10.50;99.90;;;;;;5057037;28;20437;-90
2021/12/24 09:56:27;;;;;;;8.00;4.20;;;10.40;99.90;;;;;;5072989;28;20451;-88
2021/12/24 09:58:55;;;;;;;5.00;4.60;;;10.40;99.90;;;;;;5068611;28;20457;-88
2021/12/24 10:01:30;;;;;;;4.23;3.83;;;10.50;99.90;;;;;;5055687;28;20438;-92
2021/12/24 10:04:03;;;;;;;5.83;5.20;;;10.40;99.90;;;;;;5039270;28;20487;-92
2021/12/24 10:06:31;;;;;;;5.50;4.47;;;10.40;99.90;;;;;;5039975;28;20501;-91
2021/12/24 10:09:05;;;;;;;4.97;4.13;;;10.50;99.90;;;;;;5041520;28;20477;-92
2021/12/24 10:11:48;;;;;;;6.90;3.70;;;10.50;99.90;;;;;;5058352;28;20478;-92
2021/12/24 10:14:17;;;;;;;5.23;4.40;;;10.50;99.90;;;;;;5057806;28;20512;-91
2021/12/24 10:16:48;;;;;;;7.90;4.60;;;10.50;99.90;;;;;;5054634;28;20477;-90
2021/12/24 10:19:19;;;;;;;4.93;4.40;;;10.50;99.90;;;;;;5037151;28;20488;-90
2021/12/24 10:21:57;;;;;;;8.97;4.00;;;10.50;99.90;;;;;;5041799;28;20442;-90
2021/12/24 10:24:26;;;;;;;6.50;4.27;;;10.50;99.90;;;;;;5038439;28;20777;-91
2021/12/24 10:26:55;;;;;;;7.97;6.40;;;10.50;99.90;;;;;;5045149;28;20523;-90
2021/12/24 10:29:30;;;;;;;5.13;4.40;;;10.50;99.90;;;;;;5049030;28;20445;-89
2021/12/24 10:32:07;;;;;;;5.10;3.70;;;10.40;99.90;;;;;;5079067;28;20494;-89
2021/12/24 10:34:35;;;;;;;4.60;4.20;;;10.40;99.90;;;;;;5067617;28;20485;-89
2021/12/24 10:37:09;;;;;;;5.20;3.90;;;10.40;99.90;;;;;;5071244;28;20454;-90
2021/12/24 10:39:41;;;;;;;6.37;3.83;;;10.40;99.90;;;;;;5059643;28;20465;-90
2021/12/24 10:42:13;;;;;;;5.83;4.43;;;10.40;99.90;;;;;;5062956;28;20436;-88
2021/12/24 10:44:41;;;;;;;4.43;3.67;;;10.50;99.90;;;;;;5057470;28;20488;-87
2021/12/24 10:47:13;;;;;;;4.80;4.23;;;10.50;99.90;;;;;;5038512;28;20460;-87
2021/12/24 10:55:38;;;;;;;3.93;3.63;;;10.40;99.90;;;;;;5056026;28;20468;-86
2021/12/24 10:58:13;;;;;;;6.30;4.10;;;10.40;99.90;;;;;;5038655;28;20461;-88
2021/12/24 11:00:42;;;;;;;5.50;3.40;;;10.40;99.90;;;;;;5046132;28;20951;-88
2021/12/24 11:03:16;;;;;;;4.60;3.90;;;10.40;99.90;;;;;;5057258;28;20459;-86
2021/12/24 11:05:44;;;;;;;3.20;2.90;;;10.40;99.90;;;;;;5057155;28;20459;-88
2021/12/24 11:08:15;;;;;;;4.60;3.80;;;10.50;99.90;;;;;;5059701;28;20467;-88
2021/12/24 11:10:44;;;;;;;3.70;3.30;;;10.50;99.90;;;;;;5040597;28;20564;-87
2021/12/24 11:13:14;;;;;;;4.43;3.97;;;10.50;99.90;;;;;;5057250;28;20455;-88
2021/12/24 11:15:44;;;;;;;4.30;3.90;;;10.50;99.90;;;;;;5040382;28;20445;-87
2021/12/24 11:18:20;;;;;;;4.27;3.50;;;10.50;99.90;;;;;;5037527;28;20810;-88
2021/12/24 11:20:52;;;;;;;3.93;2.80;;;10.50;99.90;;;;;;5038809;28;20453;-87
2021/12/24 11:23:20;;;;;;;4.73;3.47;;;10.50;99.90;;;;;;5044722;28;20540;-87
2021/12/24 11:25:49;;;;;;;3.80;3.23;;;10.50;99.90;;;;;;5053502;28;20567;-88
2021/12/24 11:28:17;;;;;;;3.90;3.00;;;10.50;99.90;;;;;;5054135;28;20506;-87
2021/12/24 11:30:46;;;;;;;3.63;3.30;;;10.50;99.90;;;;;;5065164;28;20476;-87
2021/12/24 11:33:16;;;;;;;4.77;2.70;;;10.50;99.90;;;;;;5064850;28;20423;-86
2021/12/24 11:35:45;;;;;;;2.93;2.63;;;10.50;99.90;;;;;;5078267;28;20518;-87
2021/12/24 11:38:16;;;;;;;3.17;2.87;;;10.50;99.90;;;;;;5069932;28;20446;-87
2021/12/24 11:40:45;;;;;;;2.60;2.40;;;10.60;99.90;;;;;;5040456;28;20488;-87
2021/12/24 11:43:12;;;;;;;3.70;3.30;;;10.60;99.90;;;;;;5043312;28;20456;-87
2021/12/24 11:46:31;;;;;;;2.93;2.63;;;10.60;99.90;;;;;;5058256;28;20630;-88
2021/12/24 11:49:36;;;;;;;2.13;1.73;;;10.60;99.90;;;;;;5122313;22;20480;-88
2021/12/24 11:52:06;;;;;;;3.40;2.63;;;10.60;99.90;;;;;;5006336;28;20575;-87
2021/12/24 11:54:33;;;;;;;2.50;2.30;;;10.60;99.90;;;;;;5049655;28;20452;-86
2021/12/24 11:57:00;;;;;;;2.60;2.30;;;10.70;99.90;;;;;;5059831;28;20455;-88
2021/12/24 11:59:36;;;;;;;3.23;2.93;;;10.70;99.90;;;;;;5059932;28;20464;-87
2021/12/24 12:02:03;;;;;;;3.30;2.50;;;10.70;99.90;;;;;;5060891;28;20478;-88
2021/12/24 12:04:30;;;;;;;2.50;2.30;;;10.70;99.90;;;;;;5056861;28;20443;-89
2021/12/24 12:07:16;;;;;;;2.50;2.30;;;10.80;99.90;;;;;;5057368;28;20940;-89
2021/12/24 12:09:43;;;;;;;3.00;2.40;;;10.80;99.90;;;;;;5057114;28;20476;-89
2021/12/24 12:12:14;;;;;;;3.03;2.27;;;10.80;99.90;;;;;;5057381;28;20475;-87
2021/12/24 12:15:16;;;;;;;2.80;2.60;;;10.80;99.90;;;;;;5067417;28;20436;-87
2021/12/24 12:17:53;;;;;;;3.13;2.40;;;10.70;99.90;;;;;;5033724;28;20966;-87
2021/12/24 12:20:45;;;;;;;3.23;2.20;;;10.80;99.90;;;;;;5034736;28;20496;-87
2021/12/24 12:26:43;;;;;;;2.50;2.17;;;10.90;99.90;;;;;;5052498;28;20449;-87
2021/12/24 12:29:18;;;;;;;4.23;3.10;;;11.00;99.90;;;;;;5062151;28;20494;-87
2021/12/24 12:31:45;;;;;;;2.53;2.20;;;11.00;99.90;;;;;;5064373;28;20488;-87
2021/12/24 12:34:45;;;;;;;3.17;1.87;;;11.10;99.90;;;;;;5061455;22;20505;-87
2021/12/24 12:37:13;;;;;;;2.63;2.20;;;11.10;99.90;;;;;;5048956;28;20448;-88
2021/12/24 12:39:42;;;;;;;2.50;1.70;;;11.10;99.90;;;;;;5053715;28;20448;-88
2021/12/24 12:42:09;;;;;;;1.90;1.60;;;11.10;99.90;;;;;;5035983;28;20818;-87
2021/12/24 12:44:38;;;;;;;3.07;1.60;;;11.00;99.90;;;;;;5033769;28;20469;-85
2021/12/24 12:47:15;;;;;;;2.00;1.53;;;11.00;99.90;;;;;;5032213;28;20453;-86
2021/12/24 12:49:42;;;;;;;2.20;1.77;;;11.00;99.90;;;;;;5032551;28;20455;-87
2021/12/24 12:52:16;;;;;;;2.23;1.60;;;11.00;99.90;;;;;;5033603;28;20478;-87
2021/12/24 12:54:47;;;;;;;2.87;1.93;;;11.00;99.90;;;;;;5025965;28;20468;-87
2021/12/24 12:57:21;;;;;;;3.33;2.50;;;11.10;99.90;;;;;;5032562;28;20453;-88
2021/12/24 13:00:17;;;;;;;1.70;1.60;;;11.10;99.90;;;;;;5028450;28;20456;-87
2021/12/24 13:03:08;;;;;;;1.57;1.40;;;11.10;99.90;;;;;;5033428;28;20536;-87
2021/12/24 13:06:04;;;;;;;4.13;1.93;;;11.10;99.90;;;;;;5033214;28;20457;-87
2021/12/24 13:08:34;;;;;;;1.43;1.30;;;11.10;99.90;;;;;;5031323;28;20444;-85
2021/12/24 13:11:04;;;;;;;1.97;1.23;;;11.10;99.90;;;;;;5032544;28;20750;-86
2021/12/24 13:13:30;;;;;;;1.50;1.30;;;11.10;99.90;;;;;;5033405;28;20504;-86
2021/12/24 13:15:57;;;;;;;2.33;1.63;;;11.20;99.90;;;;;;5031531;28;20450;-87
2021/12/24 13:18:28;;;;;;;1.73;1.40;;;11.20;99.90;;;;;;5031534;28;20457;-87
2021/12/24 13:23:43;;;;;;;2.03;1.60;;;11.20;99.90;;;;;;5036925;28;21044;-87
2021/12/24 13:26:15;;;;;;;1.43;1.27;;;11.20;99.90;;;;;;5040499;28;20448;-86
2021/12/24 13:28:59;;;;;;;1.60;1.40;;;11.20;99.90;;;;;;5033075;28;20462;-86
2021/12/24 13:31:28;;;;;;;3.70;2.40;;;11.20;99.90;;;;;;5035114;28;20484;-87
2021/12/24 13:33:55;;;;;;;2.43;2.23;;;11.10;99.90;;;;;;5032733;28;20486;-86
2021/12/24 13:36:24;;;;;;;2.70;2.30;;;11.20;99.90;;;;;;5033219;28;21141;-87
2021/12/24 13:38:51;;;;;;;2.47;1.80;;;11.20;99.90;;;;;;5033376;28;20453;-86
2021/12/24 13:41:19;;;;;;;3.13;1.70;;;11.20;99.90;;;;;;5042028;28;20468;-89
2021/12/24 13:43:46;;;;;;;1.67;1.50;;;11.20;99.90;;;;;;5036848;28;20470;-87
2021/12/24 13:46:14;;;;;;;1.50;1.30;;;11.20;99.90;;;;;;5032808;28;20533;-88
2021/12/24 13:56:57;;;;;;;1.50;1.23;;;11.20;99.90;;;;;;5040026;28;21118;-87
2021/12/24 13:59:27;;;;;;;2.57;1.40;;;11.20;99.90;;;;;;5046397;28;20452;-90
2021/12/24 14:02:08;;;;;;;2.60;1.70;;;11.20;99.90;;;;;;5044770;28;20446;-88
2021/12/24 14:04:34;;;;;;;3.20;1.50;;;11.20;99.90;;;;;;5049889;28;20479;-86
2021/12/24 14:07:01;;;;;;;1.70;1.50;;;11.10;99.90;;;;;;5056733;28;20429;-86
2021/12/24 14:09:31;;;;;;;2.40;2.00;;;11.10;99.90;;;;;;5042551;28;20503;-88
2021/12/24 14:12:01;;;;;;;1.70;1.50;;;11.10;99.90;;;;;;5038795;28;20996;-85
2021/12/24 14:14:42;;;;;;;3.13;1.93;;;11.10;99.90;;;;;;5038952;28;20484;-86
2021/12/24 14:17:35;;;;;;;3.83;1.93;;;11.10;99.90;;;;;;5040189;28;20950;-86
2021/12/24 14:20:12;;;;;;;2.17;1.80;;;11.00;99.90;;;;;;5060809;28;20439;-83
2021/12/24 14:22:47;;;;;;;1.80;1.60;;;11.10;99.90;;;;;;5061612;28;20425;-91
2021/12/24 14:25:15;;;;;;;2.67;1.67;;;11.10;99.90;;;;;;5061298;28;20460;-89
2021/12/24 14:27:53;;;;;;;2.67;1.60;;;11.10;99.90;;;;;;5049504;28;20446;-88
2021/12/24 14:30:22;;;;;;;1.70;1.60;;;11.10;99.90;;;;;;5050938;28;20472;-89
2021/12/24 14:32:51;;;;;;;2.07;1.87;;;11.10;99.90;;;;;;5037516;28;20473;-87
2021/12/24 14:35:20;;;;;;;3.20;2.30;;;11.20;99.90;;;;;;5035904;28;20484;-88
2021/12/24 14:37:59;;;;;;;2.93;1.90;;;11.20;99.90;;;;;;5036397;28;20508;-90
2021/12/24 14:40:27;;;;;;;1.60;1.50;;;11.20;99.90;;;;;;5018230;28;20511;-88
2021/12/24 14:42:59;;;;;;;2.27;1.70;;;11.10;99.90;;;;;;5020495;28;20454;-88
2021/12/24 14:45:28;;;;;;;2.20;1.63;;;11.20;99.90;;;;;;5023517;28;20482;-89
2021/12/24 14:48:01;;;;;;;3.03;1.57;;;11.20;99.90;;;;;;5038237;28;20448;-90
2021/12/24 14:50:29;;;;;;;4.67;2.13;;;11.10;99.90;;;;;;5037027;28;20441;-89
2021/12/24 14:53:15;;;;;;;1.67;1.40;;;11.10;99.90;;;;;;5037944;28;20472;-89